Time;durP1;ratioP1;P1;durP2;ratioP2;P2;SDS_P1;SDS_P2;PMS_P1;PMS_P2;Temp;Humidity;BMP_temperature;BMP_pressure;BME280_temperature;BME280_humidity;BME280_pressure;Samples;Min_cycle;Max_cycle;Signal;HPM_P1;HPM_P2
2022/11/12 00:01:10;;;;;;;28.17;19.88;;;;;;;2.74;100.00;103140.97;5014082;28;20532;-85
2022/11/12 00:03:35;;;;;;;27.65;19.63;;;;;;;2.51;100.00;103103.41;5014079;28;20487;-84
2022/11/12 00:06:01;;;;;;;27.50;19.73;;;;;;;2.76;100.00;103142.72;5014018;28;20030;-84
2022/11/12 00:08:26;;;;;;;29.13;20.10;;;;;;;2.74;100.00;103152.03;5014162;28;20030;-84
2022/11/12 00:10:51;;;;;;;31.70;21.55;;;;;;;2.47;100.00;103103.41;5013206;28;20482;-82
2022/11/12 00:13:17;;;;;;;29.23;20.85;;;;;;;2.58;100.00;103122.19;5013750;28;20091;-83
2022/11/12 00:15:42;;;;;;;31.75;21.02;;;;;;;2.73;100.00;103157.97;5013586;28;20056;-83
2022/11/12 00:18:08;;;;;;;29.33;20.45;;;;;;;2.48;100.00;103126.34;5013776;28;20029;-84
2022/11/12 00:20:33;;;;;;;31.45;21.70;;;;;;;2.68;100.00;103167.31;5013715;28;20566;-85
2022/11/12 00:22:59;;;;;;;31.13;21.00;;;;;;;2.66;100.00;103168.16;5013966;28;20026;-84
2022/11/12 00:25:24;;;;;;;30.42;22.17;;;;;;;2.39;100.00;103125.44;5013860;28;20036;-83
2022/11/12 00:27:49;;;;;;;29.95;21.63;;;;;;;2.59;100.00;103160.44;5013722;28;20040;-83
2022/11/12 00:30:15;;;;;;;29.92;21.58;;;;;;;2.36;100.00;103141.56;5013562;28;20068;-81
2022/11/12 00:32:40;;;;;;;32.35;22.38;;;;;;;2.54;100.00;103173.97;5013234;28;20029;-84
2022/11/12 00:35:06;;;;;;;32.25;22.00;;;;;;;2.41;100.00;103160.28;5013709;28;20032;-81
2022/11/12 00:37:32;;;;;;;35.53;24.55;;;;;;;2.33;100.00;103135.56;5013556;28;20021;-81
2022/11/12 00:39:57;;;;;;;39.72;27.02;;;;;;;2.52;100.00;103166.31;4996418;28;20223;-81
2022/11/12 00:42:22;;;;;;;43.08;30.27;;;;;;;2.58;100.00;103173.19;5013689;28;20026;-82
2022/11/12 00:44:48;;;;;;;46.50;33.22;;;;;;;2.35;100.00;103139.84;5013651;28;20054;-82
2022/11/12 00:47:17;;;;;;;42.88;31.83;;;;;;;2.41;100.00;103146.69;5013225;28;20041;-84
2022/11/12 00:49:42;;;;;;;42.75;31.13;;;;;;;2.57;100.00;103164.69;5013568;28;20489;-84
2022/11/12 00:52:08;;;;;;;44.55;30.33;;;;;;;2.44;100.00;103150.09;5013189;28;20048;-84
2022/11/12 00:54:33;;;;;;;52.70;35.97;;;;;;;2.51;100.00;103156.97;5013401;28;20072;-81
2022/11/12 00:56:59;;;;;;;50.17;35.50;;;;;;;2.53;100.00;103162.09;5013479;28;20033;-81
2022/11/12 00:59:24;;;;;;;51.97;36.70;;;;;;;2.20;100.00;103099.78;4995103;28;20034;-81
2022/11/12 01:01:50;;;;;;;51.55;36.95;;;;;;;2.37;100.00;103133.06;5013263;28;20056;-81
2022/11/12 01:04:18;;;;;;;51.22;36.65;;;;;;;2.43;100.00;103147.53;5013371;28;20029;-81
2022/11/12 01:06:43;;;;;;;49.58;36.00;;;;;;;2.51;100.00;103163.78;5013116;28;20560;-81
2022/11/12 01:09:09;;;;;;;48.33;36.53;;;;;;;2.47;100.00;103165.44;5011127;28;20107;-81
2022/11/12 01:11:34;;;;;;;45.33;35.72;;;;;;;2.45;100.00;103162.00;5013176;28;20410;-81
2022/11/12 01:14:06;;;;;;;46.05;34.28;;;;;;;2.42;100.00;103162.00;5013271;28;20113;-81
2022/11/12 01:16:34;;;;;;;;;;;;;;;2.44;100.00;103167.94;5013751;28;20022;-82
2022/11/12 01:19:01;;;;;;;43.05;33.30;;;;;;;2.18;100.00;103133.75;5013388;28;20284;-82
2022/11/12 01:21:29;;;;;;;45.47;32.47;;;;;;;2.20;100.00;103139.72;5013042;28;20026;-82
2022/11/12 01:23:57;;;;;;;48.83;35.28;;;;;;;2.20;100.00;103139.72;5016299;28;20033;-81
2022/11/12 01:26:27;;;;;;;47.67;35.08;;;;;;;2.17;100.00;103129.50;5017236;28;20119;-81
2022/11/12 01:28:53;;;;;;;46.38;33.63;;;;;;;2.32;100.00;103149.16;5016950;28;20447;-81
2022/11/12 01:31:32;;;;;;;47.20;35.78;;;;;;;2.31;100.00;103153.41;5017171;28;20101;-81
2022/11/12 01:34:00;;;;;;;45.75;34.05;;;;;;;2.35;100.00;103146.63;5016759;28;20028;-81
2022/11/12 01:36:26;;;;;;;47.55;35.28;;;;;;;2.17;100.00;103129.50;5017187;28;20033;-82
2022/11/12 01:38:53;;;;;;;48.20;33.80;;;;;;;2.31;100.00;103153.41;5017054;28;20029;-81
2022/11/12 01:41:24;;;;;;;46.42;34.67;;;;;;;2.22;100.00;103138.88;5016897;28;20037;-81
2022/11/12 01:44:29;;;;;;;46.40;34.55;;;;;;;2.20;100.00;103132.91;5016946;28;20025;-82
2022/11/12 01:46:54;;;;;;;41.15;33.22;;;;;;;2.23;100.00;103145.69;4921251;29;20067;-81
2022/11/12 01:49:30;;;;;;;46.78;33.65;;;;;;;1.91;100.00;103098.66;4937079;29;20171;-82
2022/11/12 01:52:00;;;;;;;41.70;32.83;;;;;;;2.14;100.00;103132.84;4937270;29;20059;-81
2022/11/12 01:54:26;;;;;;;41.22;32.80;;;;;;;2.15;100.00;103143.91;4937069;29;20067;-81
2022/11/12 01:56:54;;;;;;;44.58;32.13;;;;;;;1.95;100.00;103114.00;4936934;29;20035;-83
2022/11/12 01:59:28;;;;;;;45.47;33.70;;;;;;;1.73;100.00;103082.38;4936788;29;20036;-81
2022/11/12 02:01:53;;;;;;;43.60;32.13;;;;;;;2.06;100.00;103136.16;4937082;29;20040;-85
2022/11/12 02:04:20;;;;;;;42.15;31.77;;;;;;;1.82;100.00;103099.44;4936828;29;20027;-85
2022/11/12 02:06:47;;;;;;;40.58;31.23;;;;;;;1.57;100.00;103057.56;4936916;29;20038;-84
2022/11/12 02:09:13;;;;;;;43.80;31.48;;;;;;;2.02;100.00;103142.94;4936654;28;20051;-84
2022/11/12 02:11:39;;;;;;;41.25;31.20;;;;;;;1.72;100.00;103085.75;4936663;29;20034;-85
2022/11/12 02:14:04;;;;;;;39.47;30.45;;;;;;;1.98;100.00;103141.22;4936642;29;20060;-85
2022/11/12 02:16:34;;;;;;;42.40;31.48;;;;;;;1.95;100.00;103139.47;4936614;29;20163;-84
2022/11/12 02:19:01;;;;;;;45.55;30.63;;;;;;;1.93;100.00;103137.75;4936332;29;20094;-84
2022/11/12 02:21:28;;;;;;;42.13;30.98;;;;;;;1.79;100.00;103112.16;4998042;28;20042;-84
2022/11/12 02:24:22;;;;;;;41.83;30.20;;;;;;;1.78;100.00;103110.44;5015894;28;20018;-85
2022/11/12 02:26:51;;;;;;;40.35;29.23;;;;;;;1.85;100.00;103132.56;5015294;28;20109;-82
2022/11/12 02:29:16;;;;;;;39.28;28.27;;;;;;;1.79;100.00;103129.13;5016139;28;20343;-81
2022/11/12 02:31:42;;;;;;;39.10;27.70;;;;;;;1.73;100.00;103115.47;5016114;28;20026;-80
2022/11/12 02:34:07;;;;;;;38.47;28.17;;;;;;;1.78;100.00;103132.53;5014875;28;20018;-81
2022/11/12 02:36:32;;;;;;;37.33;27.92;;;;;;;1.52;100.00;103096.56;5016004;28;20030;-81
2022/11/12 02:38:57;;;;;;;38.92;27.80;;;;;;;1.81;100.00;103143.59;5015598;28;20117;-81
2022/11/12 02:41:23;;;;;;;37.85;25.85;;;;;;;1.77;100.00;103148.63;5015593;28;20040;-81
2022/11/12 02:43:48;;;;;;;37.30;26.67;;;;;;;1.54;100.00;103102.53;5016061;28;20030;-81
2022/11/12 02:46:14;;;;;;;36.53;25.48;;;;;;;1.79;100.00;103146.97;5015705;28;20036;-81
2022/11/12 02:48:39;;;;;;;35.25;26.60;;;;;;;1.71;100.00;103131.59;5015581;28;20030;-81
2022/11/12 02:51:05;;;;;;;35.20;26.27;;;;;;;1.61;100.00;103107.72;5015555;28;20025;-81
2022/11/12 02:53:31;;;;;;;35.00;25.73;;;;;;;1.58;100.00;103097.50;5015284;28;20030;-81
2022/11/12 02:55:57;;;;;;;34.13;25.52;;;;;;;1.79;100.00;103137.63;5015446;28;20101;-81
2022/11/12 02:58:22;;;;;;;33.03;25.10;;;;;;;1.59;100.00;103095.81;5015574;28;20084;-82
2022/11/12 03:00:48;;;;;;;33.30;24.70;;;;;;;1.79;100.00;103129.13;5015393;28;20523;-81
2022/11/12 03:03:13;;;;;;;39.30;25.60;;;;;;;1.46;100.00;103059.16;5015512;28;20033;-81
2022/11/12 03:05:39;;;;;;;33.42;24.70;;;;;;;1.56;100.00;103073.69;5015200;28;20061;-81
2022/11/12 03:08:07;;;;;;;34.50;25.67;;;;;;;1.54;100.00;103082.16;5015252;28;20057;-81
2022/11/12 03:10:33;;;;;;;35.95;25.30;;;;;;;1.36;100.00;103052.25;5015054;28;20464;-81
2022/11/12 03:13:00;;;;;;;33.38;24.42;;;;;;;1.76;100.00;103119.75;5014966;28;20041;-80
2022/11/12 03:15:27;;;;;;;36.10;26.00;;;;;;;1.73;100.00;103123.13;5014345;28;20481;-82
2022/11/12 03:17:52;;;;;;;33.25;24.48;;;;;;;1.73;100.00;103124.81;5015098;28;20370;-81
2022/11/12 03:20:17;;;;;;;32.30;24.58;;;;;;;1.68;100.00;103119.69;5014778;28;20033;-82
2022/11/12 03:22:57;;;;;;;32.85;23.27;;;;;;;1.69;100.00;103126.50;5040317;23;20049;-82
2022/11/12 03:25:27;;;;;;;30.67;22.92;;;;;;;1.66;100.00;103120.47;5034624;28;20029;-81
2022/11/12 03:28:01;;;;;;;30.10;23.85;;;;;;;1.64;100.00;103124.72;5034460;28;20079;-85
2022/11/12 03:30:28;;;;;;;31.42;23.52;;;;;;;1.61;100.00;103128.09;5034798;28;20029;-81
2022/11/12 03:32:53;;;;;;;32.15;23.13;;;;;;;1.63;100.00;103130.66;5034662;28;20481;-81
2022/11/12 03:35:19;;;;;;;31.67;22.75;;;;;;;1.42;100.00;103101.56;5034144;28;20108;-81
2022/11/12 03:37:44;;;;;;;30.92;21.83;;;;;;;0.55;100.00;102968.22;5034572;28;20105;-82
2022/11/12 03:40:10;;;;;;;29.27;22.35;;;;;;;1.50;100.00;103123.72;5034236;28;20029;-82
2022/11/12 03:42:35;;;;;;;28.40;21.88;;;;;;;1.58;100.00;103132.31;5034412;28;20060;-83
2022/11/12 03:45:02;;;;;;;36.53;22.88;;;;;;;1.58;100.00;103140.78;5034621;28;20022;-84
2022/11/12 03:47:27;;;;;;;29.20;21.02;;;;;;;1.55;100.00;103134.78;5034301;28;20040;-83
2022/11/12 03:49:52;;;;;;;27.48;21.35;;;;;;;1.44;100.00;103117.72;5033987;28;20390;-84
2022/11/12 03:52:17;;;;;;;28.70;20.92;;;;;;;1.55;100.00;103134.78;5033981;28;20021;-85
2022/11/12 03:54:43;;;;;;;27.75;20.92;;;;;;;1.56;100.00;103134.81;5034027;28;20112;-84
2022/11/12 03:57:08;;;;;;;29.77;20.80;;;;;;;1.54;100.00;103131.41;5034019;28;20384;-83
2022/11/12 03:59:37;;;;;;;30.48;20.75;;;;;;;1.38;100.00;103115.09;5034123;28;20085;-84
2022/11/12 04:02:02;;;;;;;31.33;20.90;;;;;;;1.30;100.00;103101.44;5034067;28;20113;-84
2022/11/12 04:08:34;;;;;;;31.98;20.77;;;;;;;1.52;100.00;103139.88;5033790;28;20060;-83
2022/11/12 04:09:57;;;;;;;29.33;21.55;;;;;;;1.52;100.00;103139.88;5034306;28;20512;-83
2022/11/12 04:15:06;;;;;;;30.35;21.30;;;;;;;1.23;100.00;103080.97;5034116;28;20512;-84
2022/11/12 04:22:59;;;;;;;30.42;21.52;;;;;;;1.64;100.00;103133.22;5033446;28;20057;-84
2022/11/12 04:28:09;;;;;;;32.60;21.40;;;;;;;1.49;100.00;103083.81;5033553;28;20038;-83
2022/11/12 04:30:34;;;;;;;30.08;21.05;;;;;;;1.49;100.00;103082.13;5033365;28;20396;-84
2022/11/12 04:33:00;;;;;;;27.88;20.23;;;;;;;1.68;100.00;103108.66;5032986;28;20025;-84
2022/11/12 04:35:26;;;;;;;28.13;20.02;;;;;;;1.47;100.00;103077.84;5033249;28;20037;-84
2022/11/12 04:38:01;;;;;;;29.33;20.17;;;;;;;1.01;100.00;103016.25;5086144;23;20125;-84
2022/11/12 04:46:19;;;;;;;26.70;19.00;;;;;;;1.55;100.00;103110.19;5033526;28;20099;-83
2022/11/12 04:48:48;;;;;;;29.90;19.80;;;;;;;0.52;100.00;102944.44;5033321;28;20033;-84
2022/11/12 04:54:26;;;;;;;27.05;19.95;;;;;;;1.46;100.00;103102.44;4934147;29;20047;-84
2022/11/12 04:56:51;;;;;;;25.70;18.80;;;;;;;1.42;100.00;103099.03;4933786;29;20122;-83
2022/11/12 04:59:16;;;;;;;27.92;20.02;;;;;;;1.40;100.00;103100.69;4933576;29;20420;-84
2022/11/12 05:01:42;;;;;;;27.55;19.92;;;;;;;1.38;100.00;103094.75;4933827;29;20051;-84
2022/11/12 05:04:07;;;;;;;28.52;20.23;;;;;;;1.20;100.00;103071.63;4933737;29;20039;-83
2022/11/12 05:06:50;;;;;;;26.48;19.95;;;;;;;1.33;100.00;103095.50;5033647;23;20061;-84
2022/11/12 05:09:17;;;;;;;27.40;19.88;;;;;;;1.29;100.00;103091.22;5032815;28;20476;-84
2022/11/12 05:11:42;;;;;;;27.73;19.13;;;;;;;1.09;100.00;103061.31;5033031;28;20370;-84
2022/11/12 05:14:07;;;;;;;26.17;19.30;;;;;;;1.11;100.00;103066.41;5033034;28;20036;-84
2022/11/12 05:16:33;;;;;;;26.70;19.25;;;;;;;0.97;100.00;103040.78;5015407;28;20037;-82
2022/11/12 05:18:58;;;;;;;26.25;19.33;;;;;;;1.27;100.00;103096.28;5032663;28;20064;-82
2022/11/12 05:24:07;;;;;;;27.02;19.17;;;;;;;0.90;100.00;103030.53;5033401;28;20087;-81
2022/11/12 05:26:33;;;;;;;24.77;18.90;;;;;;;1.11;100.00;103061.31;5032861;28;20423;-81
2022/11/12 05:28:58;;;;;;;26.90;19.23;;;;;;;1.11;100.00;103057.09;5032864;28;20112;-81
2022/11/12 05:31:23;;;;;;;25.52;18.08;;;;;;;1.26;100.00;103079.31;5032648;28;20040;-82
2022/11/12 05:33:49;;;;;;;27.00;18.73;;;;;;;1.24;100.00;103075.88;5033171;28;20021;-81
2022/11/12 05:36:14;;;;;;;26.27;19.83;;;;;;;1.24;100.00;103080.97;5032731;28;20479;-81
2022/11/12 05:38:39;;;;;;;32.08;20.45;;;;;;;1.24;100.00;103075.88;5032707;28;20041;-81
2022/11/12 05:41:05;;;;;;;28.20;18.70;;;;;;;1.25;100.00;103076.75;5032564;28;20033;-82
2022/11/12 05:43:30;;;;;;;29.75;19.45;;;;;;;1.08;100.00;103051.97;5032831;28;20441;-81
2022/11/12 05:45:55;;;;;;;26.58;18.48;;;;;;;1.25;100.00;103074.19;5032825;28;20029;-82
2022/11/12 05:48:21;;;;;;;30.13;19.23;;;;;;;1.25;100.00;103071.66;5032818;28;20071;-82
2022/11/12 05:50:52;;;;;;;30.02;20.13;;;;;;;1.05;100.00;103041.75;5032937;28;20499;-81
2022/11/12 05:53:18;;;;;;;26.75;19.38;;;;;;;1.24;100.00;103075.88;5032409;28;20474;-82
2022/11/12 05:55:43;;;;;;;30.05;19.35;;;;;;;1.25;100.00;103082.69;5032583;28;20030;-81
2022/11/12 05:58:08;;;;;;;30.13;18.67;;;;;;;1.24;100.00;103077.59;5032573;28;20442;-81
2022/11/12 06:00:38;;;;;;;30.33;18.83;;;;;;;0.92;100.00;103032.25;5032533;28;20029;-81
2022/11/12 06:03:10;;;;;;;28.52;19.92;;;;;;;0.97;100.00;103043.31;5032543;28;20026;-83
2022/11/12 06:05:36;;;;;;;29.85;19.83;;;;;;;0.89;100.00;103033.91;5032361;28;20034;-82
2022/11/12 06:08:04;;;;;;;29.98;19.95;;;;;;;1.01;100.00;103051.88;5032136;28;20030;-83
2022/11/12 06:10:29;;;;;;;28.20;20.05;;;;;;;1.20;100.00;103086.88;5034784;28;20388;-82
2022/11/12 06:12:55;;;;;;;29.17;20.33;;;;;;;1.23;100.00;103076.72;5036714;28;20025;-81
2022/11/12 06:15:20;;;;;;;31.17;20.15;;;;;;;1.12;100.00;103068.13;5036046;28;20101;-82
2022/11/12 06:17:46;;;;;;;29.35;19.00;;;;;;;1.00;100.00;103055.25;5018309;28;20048;-84
2022/11/12 06:20:12;;;;;;;32.28;20.23;;;;;;;1.20;100.00;103088.56;5036183;28;20061;-84
2022/11/12 06:22:37;;;;;;;27.02;19.08;;;;;;;0.95;100.00;103046.69;5035867;28;20108;-84
2022/11/12 06:25:04;;;;;;;28.15;18.73;;;;;;;1.21;100.00;103092.81;5035892;28;20476;-84
2022/11/12 06:27:30;;;;;;;25.85;18.40;;;;;;;1.01;100.00;103060.34;5035858;28;20104;-84
2022/11/12 06:29:56;;;;;;;27.33;18.67;;;;;;;1.17;100.00;103091.06;5035836;28;20156;-84
2022/11/12 06:32:21;;;;;;;28.40;19.17;;;;;;;1.15;100.00;103085.97;5035632;28;20107;-84
2022/11/12 06:34:46;;;;;;;29.48;20.10;;;;;;;1.05;100.00;103071.41;5017458;28;20472;-85
2022/11/12 06:37:12;;;;;;;26.63;18.52;;;;;;;1.13;100.00;103093.56;5035421;28;20029;-84
2022/11/12 06:39:37;;;;;;;28.52;19.52;;;;;;;0.68;100.00;103016.66;5035554;28;20026;-85
2022/11/12 06:42:02;;;;;;;29.27;19.90;;;;;;;1.14;100.00;103091.88;5017765;28;20025;-85
2022/11/12 06:44:28;;;;;;;29.67;19.00;;;;;;;1.14;100.00;103089.34;5035766;28;20025;-85
2022/11/12 06:46:53;;;;;;;26.98;18.65;;;;;;;1.00;100.00;103066.28;5033833;28;20121;-84
2022/11/12 06:49:18;;;;;;;28.65;19.00;;;;;;;1.13;100.00;103087.63;5035366;28;20405;-85
2022/11/12 06:51:44;;;;;;;29.88;19.27;;;;;;;1.06;100.00;103075.66;5035497;28;20528;-84
2022/11/12 06:54:10;;;;;;;30.50;19.75;;;;;;;1.14;100.00;103094.44;5035330;28;20156;-84
2022/11/12 06:56:35;;;;;;;29.90;19.63;;;;;;;1.15;100.00;103091.91;5035483;28;20476;-84
2022/11/12 06:59:00;;;;;;;27.60;19.33;;;;;;;1.17;100.00;103102.09;5035287;28;20065;-84
2022/11/12 07:01:26;;;;;;;31.30;19.27;;;;;;;1.17;100.00;103089.38;5035156;28;20108;-82
2022/11/12 07:03:52;;;;;;;31.42;19.88;;;;;;;1.10;100.00;103080.84;5035258;28;20040;-84
2022/11/12 07:06:19;;;;;;;34.53;22.20;;;;;;;1.20;100.00;103094.53;5034974;28;20469;-82
2022/11/12 07:08:45;;;;;;;32.92;20.77;;;;;;;1.23;100.00;103089.47;5034891;28;20033;-83
2022/11/12 07:11:12;;;;;;;30.95;20.60;;;;;;;1.35;100.00;103106.56;5035064;28;20028;-83
2022/11/12 07:13:40;;;;;;;30.13;20.35;;;;;;;1.36;100.00;103109.13;5050715;23;20092;-83
2022/11/12 07:16:06;;;;;;;28.40;20.67;;;;;;;1.16;100.00;103067.31;5034999;28;20075;-83
2022/11/12 07:18:33;;;;;;;30.77;19.83;;;;;;;1.31;100.00;103084.47;5034379;28;20079;-83
2022/11/12 07:21:02;;;;;;;30.90;20.48;;;;;;;1.06;100.00;103032.41;5034577;28;20022;-83
2022/11/12 07:23:28;;;;;;;29.08;19.23;;;;;;;1.50;100.00;103103.34;5034643;28;20025;-82
2022/11/12 07:25:58;;;;;;;30.42;19.88;;;;;;;1.53;100.00;103099.13;5034633;28;20045;-82
2022/11/12 07:28:25;;;;;;;33.40;20.20;;;;;;;1.32;100.00;103048.84;5034549;28;20021;-84
2022/11/12 07:30:55;;;;;;;34.05;21.00;;;;;;;1.47;100.00;103075.28;5034714;28;20967;-81
2022/11/12 07:33:21;;;;;;;31.23;20.75;;;;;;;1.73;100.00;103107.00;5034229;28;20389;-83
2022/11/12 07:35:46;;;;;;;30.70;21.20;;;;;;;1.76;100.00;103101.91;5034757;28;20021;-81
2022/11/12 07:38:11;;;;;;;33.17;21.58;;;;;;;1.82;100.00;103101.97;5034249;28;20489;-82
2022/11/12 07:40:37;;;;;;;32.53;22.80;;;;;;;0.51;100.00;102874.97;5086705;23;20049;-84
2022/11/12 07:43:02;;;;;;;35.80;23.58;;;;;;;0.93;100.00;102934.75;5034358;28;20022;-84
2022/11/12 07:45:27;;;;;;;34.58;24.38;;;;;;;1.33;100.00;102988.59;5034258;28;20021;-81
2022/11/12 07:47:52;;;;;;;36.95;25.25;;;;;;;2.08;100.00;103107.34;5034053;28;20071;-82
2022/11/12 07:50:18;;;;;;;38.22;25.77;;;;;;;2.00;100.00;103094.50;5034143;28;20017;-82
2022/11/12 07:52:43;;;;;;;39.78;28.00;;;;;;;2.20;100.00;103119.31;5034183;28;20022;-82
2022/11/12 07:55:08;;;;;;;40.35;26.38;;;;;;;1.41;100.00;102977.66;5033983;28;20385;-81
2022/11/12 07:57:34;;;;;;;41.22;27.05;;;;;;;1.64;100.00;103010.13;5033971;28;20025;-82
2022/11/12 07:59:59;;;;;;;36.22;26.85;;;;;;;2.20;100.00;103098.94;5033987;28;20392;-82
2022/11/12 08:02:24;;;;;;;47.47;29.65;;;;;;;2.43;100.00;103122.91;5021987;28;20079;-82
2022/11/12 08:04:50;;;;;;;44.17;28.90;;;;;;;2.54;100.00;103128.94;5014108;28;20025;-82
2022/11/12 08:07:15;;;;;;;44.97;28.38;;;;;;;2.64;100.00;103126.44;5014366;28;20414;-80
2022/11/12 08:09:41;;;;;;;48.70;28.85;;;;;;;2.70;100.00;103132.44;5013164;28;20041;-84
2022/11/12 08:12:06;;;;;;;42.05;27.88;;;;;;;2.55;100.00;103087.28;5014447;28;20057;-82
2022/11/12 08:14:32;;;;;;;44.92;28.52;;;;;;;2.89;100.00;103141.09;5014020;28;20041;-80
2022/11/12 08:16:57;;;;;;;41.33;27.70;;;;;;;2.01;100.00;102991.75;4996361;28;20088;-83
2022/11/12 08:19:22;;;;;;;46.20;28.90;;;;;;;1.96;100.00;102973.00;4996123;28;20026;-82
2022/11/12 08:21:48;;;;;;;43.28;26.83;;;;;;;3.01;100.00;103142.84;5013802;28;20060;-82
2022/11/12 08:24:13;;;;;;;39.17;26.95;;;;;;;3.10;100.00;103140.34;5013566;28;20021;-82
2022/11/12 08:26:38;;;;;;;43.83;29.63;;;;;;;2.88;100.00;103083.25;5013904;28;20041;-82
2022/11/12 08:29:04;;;;;;;45.88;29.00;;;;;;;2.90;100.00;103083.25;5013719;28;20025;-79
2022/11/12 08:31:29;;;;;;;45.25;29.80;;;;;;;3.28;100.00;103135.31;5013510;28;20022;-82
2022/11/12 08:33:55;;;;;;;40.30;28.35;;;;;;;3.27;100.00;103120.00;5028052;28;20084;-81
2022/11/12 08:36:20;;;;;;;41.35;29.10;;;;;;;3.35;100.00;103123.44;5013543;28;20101;-80
2022/11/12 08:38:45;;;;;;;43.08;29.67;;;;;;;3.47;100.00;103138.81;5013453;28;20454;-80
2022/11/12 08:41:12;;;;;;;45.83;31.42;;;;;;;3.56;100.00;103141.41;5013371;28;20026;-81
2022/11/12 08:43:39;;;;;;;43.67;30.13;;;;;;;3.58;100.00;103131.19;5013484;28;20026;-81
2022/11/12 08:46:05;;;;;;;48.58;30.52;;;;;;;3.37;100.00;103078.34;5013641;28;20041;-80
2022/11/12 08:48:32;;;;;;;44.72;31.35;;;;;;;3.77;100.00;103143.16;5013755;28;20385;-81
2022/11/12 08:51:03;;;;;;;47.70;30.60;;;;;;;3.85;100.00;103146.59;5013251;28;20461;-80
2022/11/12 08:53:28;;;;;;;50.70;31.88;;;;;;;3.70;100.00;103105.66;5013607;28;20026;-81
2022/11/12 08:55:55;;;;;;;46.20;32.65;;;;;;;3.96;100.00;103133.81;5013492;28;20442;-79
2022/11/12 08:58:20;;;;;;;50.40;32.90;;;;;;;4.08;100.00;103153.44;5013421;28;20415;-79
2022/11/12 09:00:46;;;;;;;44.25;30.45;;;;;;;3.71;100.00;103081.81;5013341;28;20034;-81
2022/11/12 09:03:14;;;;;;;35.65;25.98;;;;;;;4.21;100.00;103156.00;5013261;28;20042;-81
2022/11/12 09:05:39;;;;;;;38.47;28.23;;;;;;;4.26;100.00;103146.63;5013324;28;20429;-81
2022/11/12 09:08:08;;;;;;;40.00;27.75;;;;;;;4.32;100.00;103149.19;5013504;28;20161;-81
2022/11/12 09:10:34;;;;;;;40.40;28.55;;;;;;;4.42;100.00;103150.03;5012943;28;20543;-79
2022/11/12 09:13:00;;;;;;;38.38;27.88;;;;;;;4.43;100.00;103141.53;5013135;28;20034;-79
2022/11/12 09:15:27;;;;;;;39.05;27.38;;;;;;;4.30;100.00;103112.53;5013445;28;20029;-80
2022/11/12 09:18:04;;;;;;;37.92;25.75;;;;;;;4.41;100.00;103109.97;5013307;28;20021;-77
2022/11/12 09:20:31;;;;;;;38.35;27.52;;;;;;;3.48;100.00;102954.06;5012873;28;20037;-80
2022/11/12 09:23:06;;;;;;;38.47;26.35;;;;;;;4.51;100.00;103111.66;5013361;28;20165;-80
2022/11/12 09:25:32;;;;;;;38.15;27.38;;;;;;;4.76;100.00;103147.47;5012824;28;20065;-80
2022/11/12 09:28:04;;;;;;;39.45;27.60;;;;;;;4.86;100.00;103144.88;5013049;28;20030;-79
2022/11/12 09:30:29;;;;;;;44.22;28.60;;;;;;;4.74;100.00;103109.06;5012963;28;20496;-80
2022/11/12 09:32:58;;;;;;;37.90;28.17;;;;;;;5.13;100.00;103148.22;5013048;28;20018;-80
2022/11/12 09:35:23;;;;;;;39.47;27.33;;;;;;;5.25;100.00;103149.91;5012903;28;20466;-80
2022/11/12 09:37:48;;;;;;;38.17;27.27;;;;;;;5.22;100.00;103130.28;5012866;28;20029;-80
2022/11/12 09:40:17;;;;;;;38.22;27.23;;;;;;;5.27;100.00;103122.56;5012629;28;20046;-80
2022/11/12 09:42:45;;;;;;;34.92;26.63;;;;;;;5.36;100.00;103119.97;5012665;28;20034;-80
2022/11/12 09:45:27;;;;;;;37.80;26.70;;;;;;;5.60;100.00;103139.47;5016274;28;20084;-80
2022/11/12 09:47:57;;;;;;;38.63;27.10;;;;;;;5.47;100.00;103111.34;5016553;28;20106;-80
2022/11/12 09:50:47;;;;;;;35.88;25.80;;;;;;;5.73;100.00;103141.13;5016763;28;20084;-84
2022/11/12 09:53:30;;;;;;;41.35;28.00;;;;;;;5.70;100.00;103131.75;4998855;28;20365;-78
2022/11/12 09:55:55;;;;;;;38.08;27.63;;;;;;;5.89;100.00;103145.28;5016275;28;20029;-80
2022/11/12 09:58:21;;;;;;;41.70;28.40;;;;;;;5.94;100.00;103135.06;5016207;28;20389;-80
2022/11/12 10:01:15;;;;;;;41.47;27.85;;;;;;;6.00;100.00;103133.31;5016470;28;20485;-81
2022/11/12 10:03:53;;;;;;;36.90;26.95;;;;;;;6.09;100.00;103136.63;4955651;29;20508;-80
2022/11/12 10:06:22;;;;;;;39.70;26.35;;;;;;;6.04;100.00;103124.72;4955828;29;20126;-80
2022/11/12 10:09:08;;;;;;;34.22;26.65;;;;;;;6.23;100.00;103140.81;4955618;29;20047;-80
2022/11/12 10:16:41;;;;;;;37.47;27.30;;;;;;;6.38;100.00;103093.63;4936901;29;20047;-78
2022/11/12 10:18:04;;;;;;;35.92;26.15;;;;;;;6.61;100.00;103113.97;4936351;29;20038;-79
2022/11/12 10:20:47;;;;;;;34.17;24.85;;;;;;;6.77;100.00;103122.34;4936557;29;20050;-80
2022/11/12 10:23:28;;;;;;;35.05;24.02;;;;;;;6.87;100.00;103121.38;4936415;29;20051;-78
2022/11/12 10:25:57;;;;;;;33.38;24.02;;;;;;;6.96;100.00;103123.84;4936395;29;20091;-79
2022/11/12 10:28:33;;;;;;;30.65;22.45;;;;;;;7.03;100.00;103104.94;4936204;29;20048;-77
2022/11/12 10:31:09;;;;;;;32.33;22.08;;;;;;;7.15;100.00;103115.06;4936213;29;20075;-80
2022/11/12 10:33:35;;;;;;;28.92;21.67;;;;;;;7.14;100.00;103091.97;4936428;29;20039;-81
2022/11/12 10:36:16;;;;;;;30.55;22.17;;;;;;;7.17;100.00;103084.22;4936052;29;20039;-80
2022/11/12 10:38:43;;;;;;;31.33;21.63;;;;;;;7.47;100.00;103117.25;4935971;29;20044;-81
2022/11/12 10:41:35;;;;;;;32.65;22.23;;;;;;;7.35;100.00;103078.84;4979054;28;20056;-81
2022/11/12 10:44:03;;;;;;;30.65;23.27;;;;;;;7.55;100.00;103104.28;4993856;28;20497;-83
2022/11/12 10:46:33;;;;;;;32.70;22.40;;;;;;;7.69;100.00;103115.22;4993694;28;20034;-80
2022/11/12 10:49:21;;;;;;;33.38;23.42;;;;;;;7.73;100.00;103103.16;4993649;28;20042;-81
2022/11/12 10:51:55;;;;;;;30.98;21.83;;;;;;;7.06;100.00;102978.16;5013067;28;20120;-82
2022/11/12 10:54:45;;;;;;;31.65;22.80;;;;;;;7.91;100.00;103107.19;4997916;28;20037;-80
2022/11/12 10:57:23;;;;;;;31.02;21.83;;;;;;;8.01;100.00;103096.72;5014632;28;20072;-82
2022/11/12 11:00:15;;;;;;;32.97;23.52;;;;;;;8.13;100.00;103103.41;5015240;28;20037;-79
2022/11/12 11:02:52;;;;;;;31.13;23.88;;;;;;;7.92;100.00;103031.72;4997691;28;20057;-79
2022/11/12 11:05:29;;;;;;;36.05;23.80;;;;;;;7.96;100.00;103012.75;4997668;28;20472;-78
2022/11/12 11:07:54;;;;;;;38.53;26.17;;;;;;;8.56;100.00;103085.53;5015136;28;20034;-77
2022/11/12 11:10:29;;;;;;;33.78;25.73;;;;;;;8.69;100.00;103082.72;5015156;28;20030;-75
2022/11/12 11:13:21;;;;;;;37.40;29.38;;;;;;;8.78;100.00;103082.53;5014886;28;20033;-82
2022/11/12 11:16:03;;;;;;;31.98;24.27;;;;;;;8.79;100.00;103086.81;5015145;28;20029;-80
2022/11/12 11:18:32;;;;;;;31.83;23.48;;;;;;;8.59;100.00;103048.56;4991890;28;20117;-83
2022/11/12 11:21:26;;;;;;;31.10;22.88;;;;;;;8.80;100.00;103081.63;5015034;28;20104;-81
2022/11/12 11:24:00;;;;;;;32.55;23.65;;;;;;;8.95;100.00;103082.19;5014883;28;20022;-80
2022/11/12 11:27:02;;;;;;;36.22;24.42;;;;;;;9.10;100.00;103079.31;5014623;28;20030;-80
2022/11/12 11:29:54;;;;;;;30.27;23.45;;;;;;;9.22;100.00;103078.19;5014589;28;20065;-80
2022/11/12 11:32:40;;;;;;;30.90;23.10;;;;;;;9.22;100.00;103073.88;4997073;28;20076;-81
2022/11/12 11:35:20;;;;;;;35.80;24.20;;;;;;;9.20;99.70;103071.34;5014583;28;20052;-80
2022/11/12 11:38:19;;;;;;;32.40;24.13;;;;;;;9.18;100.00;103061.97;5014707;28;20333;-80
2022/11/12 11:40:56;;;;;;;35.95;24.25;;;;;;;9.23;99.88;103069.56;4996282;28;20482;-81
2022/11/12 11:43:53;;;;;;;32.35;23.88;;;;;;;9.20;100.00;103061.03;4995692;28;20041;-80
2022/11/12 11:46:24;;;;;;;33.67;24.10;;;;;;;9.16;99.96;103067.16;5014417;28;20022;-80